Time;durP1;ratioP1;P1;durP2;ratioP2;P2;SDS_P1;SDS_P2;PMS_P1;PMS_P2;Temp;Humidity;BMP_temperature;BMP_pressure;BME280_temperature;BME280_humidity;BME280_pressure;Samples;Min_cycle;Max_cycle;Signal;HPM_P1;HPM_P2
2022/10/15 00:00:08;;;;;;;62.08;32.63;;;;;;;;;;4973054;28;20556;-80
2022/10/15 00:02:34;;;;;;;61.00;31.45;;;;;;;;;;4973060;28;20058;-80
2022/10/15 00:05:00;;;;;;;61.25;32.20;;;;;;;;;;4971760;28;20047;-81
2022/10/15 00:07:28;;;;;;;63.67;32.92;;;;;;;;;;4973200;28;20100;-81
2022/10/15 00:09:54;;;;;;;62.40;31.63;;;;;;;;;;4966469;28;20043;-81
2022/10/15 00:12:20;;;;;;;63.08;32.88;;;;;;;;;;4954827;28;20051;-80
2022/10/15 00:14:46;;;;;;;71.40;33.25;;;;;;;;;;4973044;28;20100;-80
2022/10/15 00:17:12;;;;;;;67.72;33.00;;;;;;;;;;4972833;28;20424;-81
2022/10/15 00:19:38;;;;;;;77.22;35.25;;;;;;;;;;4972746;28;20456;-81
2022/10/15 00:22:04;;;;;;;70.97;34.08;;;;;;;;;;4972558;28;20049;-81
2022/10/15 00:24:31;;;;;;;74.18;36.40;;;;;;;;;;4972522;28;20054;-80
2022/10/15 00:26:57;;;;;;;70.03;35.60;;;;;;;;;;4960247;28;20163;-81
2022/10/15 00:29:23;;;;;;;73.38;36.88;;;;;;;;;;4953730;28;20056;-81
2022/10/15 00:31:49;;;;;;;75.60;38.47;;;;;;;;;;4953381;28;20055;-81
2022/10/15 00:34:15;;;;;;;81.93;37.08;;;;;;;;;;4953564;28;20043;-81
2022/10/15 00:36:41;;;;;;;76.50;39.33;;;;;;;;;;4953171;28;20402;-80
2022/10/15 00:39:07;;;;;;;80.47;38.03;;;;;;;;;;4953577;28;20399;-80
2022/10/15 00:41:35;;;;;;;83.20;39.60;;;;;;;;;;4971882;28;20136;-81
2022/10/15 00:44:02;;;;;;;82.15;41.10;;;;;;;;;;4972567;28;20130;-81
2022/10/15 00:46:30;;;;;;;88.43;41.90;;;;;;;;;;4972752;28;20050;-81
2022/10/15 00:49:00;;;;;;;91.93;43.22;;;;;;;;;;4972401;28;20414;-81
2022/10/15 00:51:29;;;;;;;99.38;43.67;;;;;;;;;;4972223;28;20497;-81
2022/10/15 00:53:55;;;;;;;98.32;43.85;;;;;;;;;;4972333;28;20047;-80
2022/10/15 00:56:21;;;;;;;92.00;42.53;;;;;;;;;;4953800;28;20097;-80
2022/10/15 00:58:48;;;;;;;100.53;44.22;;;;;;;;;;4969326;28;20050;-81
2022/10/15 01:01:14;;;;;;;98.00;44.80;;;;;;;;;;4972152;28;20383;-81
2022/10/15 01:03:40;;;;;;;100.82;44.25;;;;;;;;;;4972380;28;20051;-81
2022/10/15 01:06:07;;;;;;;94.75;43.05;;;;;;;;;;4972143;28;20089;-81
2022/10/15 01:08:33;;;;;;;88.65;42.10;;;;;;;;;;4970963;28;20062;-81
2022/10/15 01:10:59;;;;;;;95.97;44.95;;;;;;;;;;4954567;28;20054;-81
2022/10/15 01:14:03;;;;;;;92.88;43.08;;;;;;;;;;4952981;28;20126;-81
2022/10/15 01:16:37;;;;;;;89.53;42.83;;;;;;;;;;4875021;29;20120;-81
2022/10/15 01:19:10;;;;;;;98.57;44.15;;;;;;;;;;4875086;29;20056;-81
2022/10/15 01:21:56;;;;;;;93.50;44.92;;;;;;;;;;4859612;29;20108;-81
2022/10/15 01:24:40;;;;;;;99.03;42.63;;;;;;;;;;4880984;29;20112;-81
2022/10/15 01:27:16;;;;;;;102.63;43.63;;;;;;;;;;4860341;29;20537;-81
2022/10/15 01:29:56;;;;;;;95.32;43.25;;;;;;;;;;4884493;29;20131;-81
2022/10/15 01:32:35;;;;;;;102.28;44.28;;;;;;;;;;4892705;29;20064;-81
2022/10/15 01:35:04;;;;;;;94.20;42.50;;;;;;;;;;4893735;29;20491;-81
2022/10/15 01:37:39;;;;;;;91.25;42.95;;;;;;;;;;4893497;29;20128;-81
2022/10/15 01:40:09;;;;;;;106.57;43.97;;;;;;;;;;4893378;29;20053;-81
2022/10/15 01:42:38;;;;;;;96.75;43.15;;;;;;;;;;4877737;29;20489;-81
2022/10/15 01:45:10;;;;;;;94.32;42.42;;;;;;;;;;4893354;29;20064;-81
2022/10/15 01:47:39;;;;;;;97.88;41.47;;;;;;;;;;4944461;28;20498;-81
2022/10/15 01:50:06;;;;;;;91.45;41.47;;;;;;;;;;4971776;28;20043;-81
2022/10/15 01:52:33;;;;;;;98.70;42.03;;;;;;;;;;4954302;28;20051;-81
2022/10/15 01:55:00;;;;;;;102.65;43.58;;;;;;;;;;4971777;28;20130;-81
2022/10/15 01:57:27;;;;;;;102.35;43.17;;;;;;;;;;4972739;28;20177;-81
2022/10/15 01:59:53;;;;;;;90.53;40.95;;;;;;;;;;4954456;28;20052;-81
2022/10/15 02:02:19;;;;;;;97.47;42.42;;;;;;;;;;4961243;28;20070;-81
2022/10/15 02:04:45;;;;;;;99.28;42.42;;;;;;;;;;4953799;28;20052;-81
2022/10/15 02:07:15;;;;;;;105.45;44.28;;;;;;;;;;4952210;29;20046;-80
2022/10/15 02:09:41;;;;;;;97.95;41.97;;;;;;;;;;4951081;29;20051;-81
2022/10/15 02:12:10;;;;;;;94.15;41.15;;;;;;;;;;4952299;28;20054;-80
2022/10/15 02:14:40;;;;;;;103.20;44.03;;;;;;;;;;4952226;28;20047;-81
2022/10/15 02:17:08;;;;;;;101.10;42.03;;;;;;;;;;4952292;28;20130;-81
2022/10/15 02:19:41;;;;;;;101.10;43.53;;;;;;;;;;4968592;28;20039;-81
2022/10/15 02:22:18;;;;;;;95.85;43.83;;;;;;;;;;4964764;28;20066;-81
2022/10/15 02:24:49;;;;;;;98.00;42.85;;;;;;;;;;4951672;29;20091;-81
2022/10/15 02:27:16;;;;;;;95.57;43.28;;;;;;;;;;4952166;28;20039;-81
2022/10/15 02:29:44;;;;;;;100.45;44.05;;;;;;;;;;4952084;29;20126;-81
2022/10/15 02:32:10;;;;;;;98.07;44.78;;;;;;;;;;4950904;28;20559;-81
2022/10/15 02:34:37;;;;;;;100.30;42.17;;;;;;;;;;4966545;28;20062;-81
2022/10/15 02:37:04;;;;;;;86.25;39.85;;;;;;;;;;4973737;28;20051;-81
2022/10/15 02:39:30;;;;;;;100.95;42.92;;;;;;;;;;4975451;28;20519;-81
2022/10/15 02:41:57;;;;;;;78.25;38.75;;;;;;;;;;4975721;28;20047;-81
2022/10/15 02:44:23;;;;;;;92.32;41.70;;;;;;;;;;4966649;28;20409;-81
2022/10/15 02:46:49;;;;;;;93.45;42.00;;;;;;;;;;4959916;28;20083;-81
2022/10/15 02:49:15;;;;;;;84.75;40.60;;;;;;;;;;4969661;28;20057;-81
2022/10/15 02:51:41;;;;;;;76.28;39.55;;;;;;;;;;4967573;28;20043;-81
2022/10/15 02:54:07;;;;;;;86.32;39.45;;;;;;;;;;4955578;28;20093;-81
2022/10/15 02:56:34;;;;;;;87.18;40.65;;;;;;;;;;4953602;29;20126;-81
2022/10/15 02:59:00;;;;;;;76.35;38.47;;;;;;;;;;4955221;28;20130;-81
2022/10/15 03:01:26;;;;;;;81.00;39.72;;;;;;;;;;4955228;28;20047;-81
2022/10/15 03:03:52;;;;;;;81.72;37.95;;;;;;;;;;4960335;28;20507;-81
2022/10/15 03:06:18;;;;;;;85.70;40.45;;;;;;;;;;4974685;28;20122;-81
2022/10/15 03:08:44;;;;;;;94.78;39.67;;;;;;;;;;4974876;28;20047;-81
2022/10/15 03:11:11;;;;;;;82.53;37.92;;;;;;;;;;4957498;28;20047;-81
2022/10/15 03:13:40;;;;;;;76.15;37.60;;;;;;;;;;4955218;28;20054;-81
2022/10/15 03:16:09;;;;;;;78.88;36.25;;;;;;;;;;4963769;28;20126;-81
2022/10/15 03:18:35;;;;;;;79.15;37.60;;;;;;;;;;4973872;28;20494;-81
2022/10/15 03:21:01;;;;;;;76.68;35.78;;;;;;;;;;4961329;28;20561;-81
2022/10/15 03:23:28;;;;;;;71.05;36.33;;;;;;;;;;4973545;28;20441;-81
2022/10/15 03:25:54;;;;;;;68.82;35.63;;;;;;;;;;4974531;28;20043;-81
2022/10/15 03:28:20;;;;;;;68.38;33.88;;;;;;;;;;4973801;28;20039;-81
2022/10/15 03:30:47;;;;;;;72.18;36.33;;;;;;;;;;4973809;28;20039;-81
2022/10/15 03:33:13;;;;;;;68.75;36.17;;;;;;;;;;4973673;28;20058;-81
2022/10/15 03:35:39;;;;;;;70.97;36.70;;;;;;;;;;4956477;28;20123;-81
2022/10/15 03:38:06;;;;;;;69.07;36.15;;;;;;;;;;4954063;29;20405;-81
2022/10/15 03:40:32;;;;;;;75.18;37.13;;;;;;;;;;4937342;29;20105;-81
2022/10/15 03:42:58;;;;;;;76.78;36.75;;;;;;;;;;4954048;29;20437;-81
2022/10/15 03:45:24;;;;;;;74.32;35.78;;;;;;;;;;4954312;29;20059;-81
2022/10/15 03:47:50;;;;;;;69.05;35.28;;;;;;;;;;4954331;29;20046;-81
2022/10/15 03:50:17;;;;;;;78.53;35.70;;;;;;;;;;4954130;29;20040;-81
2022/10/15 03:52:43;;;;;;;82.18;36.65;;;;;;;;;;4954253;28;20047;-81
2022/10/15 03:55:09;;;;;;;76.53;36.13;;;;;;;;;;4953163;28;20560;-81
2022/10/15 03:57:36;;;;;;;77.63;36.15;;;;;;;;;;4953980;28;20047;-81
2022/10/15 04:00:03;;;;;;;78.13;36.28;;;;;;;;;;4956955;28;20077;-81
2022/10/15 04:02:30;;;;;;;73.88;36.78;;;;;;;;;;4972041;28;20047;-81
2022/10/15 04:04:56;;;;;;;77.38;37.97;;;;;;;;;;4957374;28;20050;-81
2022/10/15 04:07:23;;;;;;;76.28;36.85;;;;;;;;;;4961936;28;20070;-81
2022/10/15 04:09:49;;;;;;;76.85;37.55;;;;;;;;;;4973166;28;20058;-81
2022/10/15 04:12:16;;;;;;;75.78;38.00;;;;;;;;;;4962922;28;20542;-81
2022/10/15 04:14:42;;;;;;;74.70;36.40;;;;;;;;;;4953961;29;20487;-81
2022/10/15 04:17:08;;;;;;;84.45;38.88;;;;;;;;;;4953825;29;20122;-81
2022/10/15 04:19:34;;;;;;;78.95;37.75;;;;;;;;;;4953423;29;20405;-81
2022/10/15 04:22:00;;;;;;;76.05;36.72;;;;;;;;;;4953798;28;20047;-81
2022/10/15 04:24:26;;;;;;;87.63;39.47;;;;;;;;;;4953463;28;20487;-80
2022/10/15 04:26:53;;;;;;;82.03;37.90;;;;;;;;;;4953660;28;20057;-81
2022/10/15 04:29:19;;;;;;;79.10;37.70;;;;;;;;;;4953393;28;20486;-81
2022/10/15 04:31:45;;;;;;;79.20;39.08;;;;;;;;;;4954005;28;20047;-81
2022/10/15 04:34:11;;;;;;;78.95;39.75;;;;;;;;;;4953390;28;20055;-81
2022/10/15 04:36:37;;;;;;;89.35;37.15;;;;;;;;;;4953702;28;20043;-81
2022/10/15 04:39:04;;;;;;;78.05;37.17;;;;;;;;;;4953204;29;20058;-81
2022/10/15 04:41:30;;;;;;;82.85;38.90;;;;;;;;;;4953469;28;20065;-81
2022/10/15 04:43:56;;;;;;;84.93;39.72;;;;;;;;;;4953510;29;20058;-81
2022/10/15 04:46:22;;;;;;;86.13;38.65;;;;;;;;;;4953485;29;20058;-81
2022/10/15 04:48:48;;;;;;;88.97;41.13;;;;;;;;;;4953439;28;20040;-81
2022/10/15 04:51:16;;;;;;;89.50;39.58;;;;;;;;;;4958441;28;20042;-81
2022/10/15 04:53:42;;;;;;;90.00;39.20;;;;;;;;;;4972271;28;20459;-81
2022/10/15 04:56:14;;;;;;;85.38;38.90;;;;;;;;;;4972457;28;20043;-81
2022/10/15 04:58:40;;;;;;;89.30;41.00;;;;;;;;;;4972843;28;20043;-81
2022/10/15 05:01:07;;;;;;;93.88;41.00;;;;;;;;;;4955191;28;20050;-81
2022/10/15 05:03:34;;;;;;;94.47;40.85;;;;;;;;;;4958703;28;20506;-81
2022/10/15 05:06:05;;;;;;;95.10;42.70;;;;;;;;;;4957534;28;20347;-81
2022/10/15 05:08:32;;;;;;;89.97;39.83;;;;;;;;;;4972139;28;20053;-81
2022/10/15 05:11:04;;;;;;;97.68;41.63;;;;;;;;;;4972352;28;20074;-81
2022/10/15 05:13:31;;;;;;;95.03;42.92;;;;;;;;;;4972562;28;20567;-81
2022/10/15 05:15:57;;;;;;;99.47;41.80;;;;;;;;;;4971994;28;20039;-81
2022/10/15 05:18:23;;;;;;;99.30;42.70;;;;;;;;;;4967537;28;20059;-81
2022/10/15 05:20:49;;;;;;;93.22;40.70;;;;;;;;;;4966426;28;20070;-81
2022/10/15 05:23:15;;;;;;;105.32;45.83;;;;;;;;;;4971856;28;20446;-81
2022/10/15 05:25:42;;;;;;;103.05;43.42;;;;;;;;;;4972703;28;20101;-81
2022/10/15 05:28:08;;;;;;;104.47;44.15;;;;;;;;;;4970619;28;20131;-81
2022/10/15 05:30:34;;;;;;;99.93;43.20;;;;;;;;;;4971872;28;20086;-81
2022/10/15 05:33:00;;;;;;;98.80;43.65;;;;;;;;;;4971986;28;20038;-81
2022/10/15 05:35:26;;;;;;;90.68;44.25;;;;;;;;;;4952800;28;20039;-81
2022/10/15 05:37:52;;;;;;;102.35;45.17;;;;;;;;;;4952701;29;20130;-81
2022/10/15 05:40:18;;;;;;;95.55;43.22;;;;;;;;;;4952578;29;20044;-81
2022/10/15 05:42:50;;;;;;;89.55;41.70;;;;;;;;;;4952599;29;20050;-81
2022/10/15 05:45:16;;;;;;;99.63;43.03;;;;;;;;;;4952651;29;20039;-81
2022/10/15 05:47:42;;;;;;;99.28;44.25;;;;;;;;;;4952569;28;20047;-81
2022/10/15 05:50:08;;;;;;;102.20;43.08;;;;;;;;;;4966745;28;20066;-81
2022/10/15 05:52:34;;;;;;;103.43;43.20;;;;;;;;;;4952478;29;20047;-81
2022/10/15 05:55:00;;;;;;;101.75;42.53;;;;;;;;;;4952409;29;20040;-81
2022/10/15 05:57:26;;;;;;;103.72;42.05;;;;;;;;;;4952116;29;20090;-81
2022/10/15 05:59:52;;;;;;;102.10;43.72;;;;;;;;;;4953427;29;20047;-81
2022/10/15 06:02:18;;;;;;;99.20;44.78;;;;;;;;;;4954986;29;20050;-81
2022/10/15 06:04:47;;;;;;;97.85;41.08;;;;;;;;;;4968634;28;20043;-81
2022/10/15 06:07:13;;;;;;;100.40;42.63;;;;;;;;;;4952199;28;20406;-81
2022/10/15 06:09:39;;;;;;;98.45;43.85;;;;;;;;;;4952387;28;20044;-81
2022/10/15 06:12:05;;;;;;;98.13;42.30;;;;;;;;;;4952346;28;20043;-81
2022/10/15 06:14:31;;;;;;;100.32;42.42;;;;;;;;;;4952448;28;20039;-81
2022/10/15 06:16:57;;;;;;;102.55;42.72;;;;;;;;;;4952607;28;20065;-84
2022/10/15 06:19:23;;;;;;;99.93;43.60;;;;;;;;;;4954039;28;20394;-81
2022/10/15 06:21:49;;;;;;;91.18;42.75;;;;;;;;;;4955812;28;20043;-81
2022/10/15 06:24:15;;;;;;;95.70;42.38;;;;;;;;;;4955278;28;20445;-81
2022/10/15 06:26:41;;;;;;;95.47;42.47;;;;;;;;;;4955540;29;20054;-81
2022/10/15 06:29:07;;;;;;;95.38;45.45;;;;;;;;;;4955509;28;20154;-81
2022/10/15 06:31:33;;;;;;;97.57;43.08;;;;;;;;;;4955429;28;20106;-81
2022/10/15 06:33:59;;;;;;;94.53;43.92;;;;;;;;;;4973723;28;20421;-78
2022/10/15 06:36:25;;;;;;;98.47;44.05;;;;;;;;;;4956480;28;20417;-78
2022/10/15 06:38:51;;;;;;;93.28;40.72;;;;;;;;;;4955908;29;20051;-78
2022/10/15 06:41:17;;;;;;;88.53;43.33;;;;;;;;;;4955677;29;20062;-78
2022/10/15 06:43:46;;;;;;;88.85;40.80;;;;;;;;;;4955417;29;20043;-78
2022/10/15 06:46:12;;;;;;;93.55;44.03;;;;;;;;;;4972233;28;20058;-79
2022/10/15 06:48:38;;;;;;;86.57;40.53;;;;;;;;;;4973241;28;20051;-79
2022/10/15 06:51:04;;;;;;;87.13;41.97;;;;;;;;;;4974348;28;20093;-78
2022/10/15 06:53:31;;;;;;;93.70;43.85;;;;;;;;;;4974554;28;20051;-78
2022/10/15 06:55:58;;;;;;;94.80;44.80;;;;;;;;;;4974404;28;20047;-78
2022/10/15 06:58:24;;;;;;;93.55;44.03;;;;;;;;;;4974436;28;20058;-79
2022/10/15 07:00:50;;;;;;;87.50;44.58;;;;;;;;;;4967829;28;20051;-78
2022/10/15 07:03:16;;;;;;;101.43;46.05;;;;;;;;;;4955021;29;20093;-79
2022/10/15 07:05:42;;;;;;;89.10;42.67;;;;;;;;;;4972941;28;20100;-78
2022/10/15 07:08:08;;;;;;;95.15;43.83;;;;;;;;;;4973252;28;20051;-78
2022/10/15 07:10:34;;;;;;;98.03;45.85;;;;;;;;;;4961376;28;20047;-79
2022/10/15 07:13:00;;;;;;;96.85;45.17;;;;;;;;;;4954922;29;20043;-79
2022/10/15 07:15:27;;;;;;;100.07;43.40;;;;;;;;;;4955779;28;20055;-78
2022/10/15 07:18:00;;;;;;;88.60;44.42;;;;;;;;;;4955047;29;20054;-78
2022/10/15 07:20:27;;;;;;;90.40;44.92;;;;;;;;;;4954908;28;20140;-77
2022/10/15 07:22:57;;;;;;;92.90;45.10;;;;;;;;;;4954979;28;20044;-78
2022/10/15 07:25:23;;;;;;;90.30;44.47;;;;;;;;;;4957734;28;20059;-81
2022/10/15 07:27:49;;;;;;;88.82;43.78;;;;;;;;;;4973587;28;20051;-78
2022/10/15 07:30:16;;;;;;;89.13;44.05;;;;;;;;;;4976162;28;20046;-80
2022/10/15 07:32:42;;;;;;;92.95;45.67;;;;;;;;;;4971281;28;20466;-78
2022/10/15 07:35:08;;;;;;;88.43;43.45;;;;;;;;;;4964078;28;20043;-79
2022/10/15 07:37:34;;;;;;;92.68;43.78;;;;;;;;;;4964995;28;20046;-79
2022/10/15 07:40:00;;;;;;;98.28;44.83;;;;;;;;;;4956872;28;20085;-79
2022/10/15 07:42:26;;;;;;;92.70;43.67;;;;;;;;;;4955611;29;20043;-78
2022/10/15 07:44:52;;;;;;;90.40;44.40;;;;;;;;;;4954935;28;20055;-78
2022/10/15 07:47:18;;;;;;;95.90;45.33;;;;;;;;;;4955376;29;20054;-78
2022/10/15 07:49:44;;;;;;;99.20;44.80;;;;;;;;;;4971711;28;20054;-78
2022/10/15 07:52:11;;;;;;;100.07;45.50;;;;;;;;;;4974426;28;20126;-78
2022/10/15 07:54:37;;;;;;;100.82;45.25;;;;;;;;;;4974105;28;20100;-78
2022/10/15 07:57:05;;;;;;;100.10;43.20;;;;;;;;;;4970540;28;20039;-80
2022/10/15 07:59:31;;;;;;;99.22;42.13;;;;;;;;;;4958645;28;20103;-76
2022/10/15 08:01:57;;;;;;;96.93;42.45;;;;;;;;;;4970714;28;20043;-76
2022/10/15 08:04:24;;;;;;;88.65;39.22;;;;;;;;;;4969254;28;20117;-76
2022/10/15 08:06:50;;;;;;;92.13;39.53;;;;;;;;;;4964575;28;20039;-76
2022/10/15 08:09:16;;;;;;;90.68;39.42;;;;;;;;;;4960790;28;20054;-79
2022/10/15 08:11:45;;;;;;;87.13;40.42;;;;;;;;;;4956677;28;20039;-79
2022/10/15 08:14:11;;;;;;;84.78;37.13;;;;;;;;;;4956455;28;20410;-79
2022/10/15 08:16:37;;;;;;;82.72;37.95;;;;;;;;;;4954269;28;20105;-79
2022/10/15 08:19:03;;;;;;;86.85;39.28;;;;;;;;;;4964132;28;20099;-80
2022/10/15 08:21:29;;;;;;;85.25;39.40;;;;;;;;;;4954139;28;20446;-79
2022/10/15 08:23:55;;;;;;;85.97;40.05;;;;;;;;;;4954271;28;20510;-79
2022/10/15 08:26:21;;;;;;;90.38;41.20;;;;;;;;;;4969934;28;20054;-79
2022/10/15 08:28:47;;;;;;;87.22;40.17;;;;;;;;;;4958167;28;20395;-79
2022/10/15 08:31:13;;;;;;;84.65;36.78;;;;;;;;;;4954919;28;20041;-78
2022/10/15 08:33:39;;;;;;;83.50;38.08;;;;;;;;;;4972869;28;20141;-79
2022/10/15 08:36:05;;;;;;;86.00;39.20;;;;;;;;;;4972732;28;20149;-79
2022/10/15 08:38:32;;;;;;;85.57;39.67;;;;;;;;;;4973343;28;20086;-78
2022/10/15 08:40:59;;;;;;;76.32;35.78;;;;;;;;;;4972717;28;20050;-79
2022/10/15 08:43:35;;;;;;;78.15;37.78;;;;;;;;;;4964681;28;20039;-78
2022/10/15 08:46:01;;;;;;;;;;;;;;;;;;4967873;28;20192;-78
2022/10/15 08:48:32;;;;;;;78.50;37.53;;;;;;;;;;4953645;28;20368;-77
2022/10/15 08:51:12;;;;;;;80.97;38.72;;;;;;;;;;4961231;28;20559;-79
2022/10/15 08:53:44;;;;;;;78.80;38.17;;;;;;;;;;4965672;28;20092;-77
2022/10/15 08:56:19;;;;;;;77.70;36.88;;;;;;;;;;4955926;28;20047;-77
2022/10/15 08:58:50;;;;;;;85.82;37.35;;;;;;;;;;4962517;28;20069;-76
2022/10/15 09:01:40;;;;;;;77.80;36.85;;;;;;;;;;4956410;28;20058;-78
2022/10/15 09:04:18;;;;;;;78.45;36.03;;;;;;;;;;4975409;28;20051;-76
2022/10/15 09:06:44;;;;;;;75.90;34.63;;;;;;;;;;4961707;28;20047;-77
2022/10/15 09:09:10;;;;;;;76.78;34.63;;;;;;;;;;4966442;28;20051;-79
2022/10/15 09:11:39;;;;;;;67.60;32.25;;;;;;;;;;4970313;28;20046;-76
2022/10/15 09:14:09;;;;;;;65.63;31.05;;;;;;;;;;4966018;28;20485;-77
2022/10/15 09:16:37;;;;;;;64.03;32.92;;;;;;;;;;4966694;28;20046;-77
2022/10/15 09:19:05;;;;;;;68.10;32.03;;;;;;;;;;4958332;28;20039;-78
2022/10/15 09:21:32;;;;;;;61.17;31.73;;;;;;;;;;4964547;28;20051;-79
2022/10/15 09:24:00;;;;;;;66.68;34.15;;;;;;;;;;4962216;28;20074;-78
2022/10/15 09:26:29;;;;;;;67.43;33.58;;;;;;;;;;4956301;28;20131;-78
2022/10/15 09:29:20;;;;;;;72.28;35.20;;;;;;;;;;4956545;28;20050;-79
2022/10/15 09:31:50;;;;;;;74.80;33.17;;;;;;;;;;4964405;28;20395;-77
2022/10/15 09:34:34;;;;;;;77.18;38.17;;;;;;;;;;5031588;28;20572;-82
2022/10/15 09:37:05;;;;;;;69.85;34.42;;;;;;;;;;5023506;28;20058;-78
2022/10/15 09:39:40;;;;;;;63.55;33.90;;;;;;;;;;4972660;28;20427;-81
2022/10/15 09:42:20;;;;;;;62.03;31.45;;;;;;;;;;4972661;28;20047;-78
2022/10/15 09:44:47;;;;;;;58.00;31.25;;;;;;;;;;4971060;28;20160;-76
2022/10/15 09:47:21;;;;;;;50.70;28.48;;;;;;;;;;4975399;28;20122;-80
2022/10/15 09:49:47;;;;;;;51.00;29.58;;;;;;;;;;4974048;28;20057;-75
2022/10/15 09:52:13;;;;;;;48.78;27.33;;;;;;;;;;4972166;28;20051;-75
2022/10/15 09:54:58;;;;;;;43.22;25.95;;;;;;;;;;4971109;28;20053;-75
2022/10/15 09:57:24;;;;;;;45.10;26.08;;;;;;;;;;4970340;28;20494;-75
2022/10/15 09:59:55;;;;;;;44.72;25.95;;;;;;;;;;4953166;28;20043;-75
2022/10/15 10:02:22;;;;;;;42.33;25.48;;;;;;;;;;4965438;28;20051;-75
2022/10/15 10:04:48;;;;;;;44.63;26.42;;;;;;;;;;4971811;28;20042;-76
2022/10/15 10:07:29;;;;;;;45.80;26.63;;;;;;;;;;4972309;28;20047;-74
2022/10/15 10:09:56;;;;;;;43.15;25.58;;;;;;;;;;4971265;28;20053;-76
2022/10/15 10:12:24;;;;;;;41.85;24.00;;;;;;;;;;4970624;28;20481;-75
2022/10/15 10:14:58;;;;;;;41.30;23.98;;;;;;;;;;4956970;28;20362;-75
2022/10/15 10:17:25;;;;;;;37.35;22.42;;;;;;;;;;4953572;28;20047;-78
2022/10/15 10:20:12;;;;;;;36.55;21.13;;;;;;;;;;4955829;28;20047;-78
2022/10/15 10:22:43;;;;;;;34.85;21.63;;;;;;;;;;4952491;29;20130;-77
2022/10/15 10:25:28;;;;;;;33.47;19.65;;;;;;;;;;4952215;28;20482;-75
2022/10/15 10:28:12;;;;;;;32.83;19.40;;;;;;;;;;4951021;28;20055;-76
2022/10/15 10:30:47;;;;;;;30.67;18.45;;;;;;;;;;4956537;28;20047;-77
2022/10/15 10:33:15;;;;;;;32.17;17.63;;;;;;;;;;4963971;28;20055;-76
2022/10/15 10:35:46;;;;;;;33.88;20.10;;;;;;;;;;4956685;28;20058;-78
2022/10/15 10:38:22;;;;;;;33.63;19.67;;;;;;;;;;4971829;28;20042;-77
2022/10/15 10:40:48;;;;;;;;;;;;;;;;;;4972831;28;20129;-77
2022/10/15 10:43:16;;;;;;;33.88;19.48;;;;;;;;;;4970779;28;19989;-77
2022/10/15 10:45:53;;;;;;;32.53;18.42;;;;;;;;;;4970876;28;20375;-77
2022/10/15 10:48:21;;;;;;;31.65;17.67;;;;;;;;;;4961096;28;20058;-77
2022/10/15 10:50:47;;;;;;;31.17;18.48;;;;;;;;;;4952668;28;20047;-77
2022/10/15 10:53:24;;;;;;;30.83;18.33;;;;;;;;;;4967281;28;20047;-77
2022/10/15 10:55:51;;;;;;;32.10;18.35;;;;;;;;;;4952039;28;20047;-77
2022/10/15 10:58:21;;;;;;;32.03;18.52;;;;;;;;;;4951989;28;20044;-77
2022/10/15 11:00:52;;;;;;;32.58;18.50;;;;;;;;;;4951787;28;20048;-77
2022/10/15 11:03:18;;;;;;;33.20;18.17;;;;;;;;;;4951713;28;20100;-77
2022/10/15 11:05:44;;;;;;;32.47;18.45;;;;;;;;;;4953951;28;20055;-77
2022/10/15 11:08:20;;;;;;;30.48;18.05;;;;;;;;;;4955622;28;20043;-77
2022/10/15 11:10:46;;;;;;;;;;;;;;;;;;4955726;29;20048;-77
2022/10/15 11:13:31;;;;;;;31.02;18.00;;;;;;;;;;4955321;28;19942;-77
2022/10/15 11:16:06;;;;;;;30.33;17.13;;;;;;;;;;4954826;28;20048;-77
2022/10/15 11:18:44;;;;;;;32.35;18.20;;;;;;;;;;4954869;28;20391;-77
2022/10/15 11:21:17;;;;;;;27.48;16.58;;;;;;;;;;4955055;28;20044;-77
2022/10/15 11:24:02;;;;;;;28.10;16.30;;;;;;;;;;4955212;28;20090;-77
2022/10/15 11:26:45;;;;;;;27.02;16.15;;;;;;;;;;4957636;28;20039;-76
2022/10/15 11:29:20;;;;;;;28.45;15.98;;;;;;;;;;4955201;29;20466;-77
2022/10/15 11:31:56;;;;;;;25.95;15.60;;;;;;;;;;4955387;28;20051;-77
2022/10/15 11:34:31;;;;;;;30.58;15.98;;;;;;;;;;4955036;29;20112;-77
2022/10/15 11:37:00;;;;;;;23.02;14.60;;;;;;;;;;4955130;28;20501;-79
2022/10/15 11:39:41;;;;;;;22.17;14.88;;;;;;;;;;4955685;28;20054;-77
2022/10/15 11:42:16;;;;;;;23.20;14.65;;;;;;;;;;4954331;29;20127;-77
2022/10/15 11:45:06;;;;;;;23.53;15.20;;;;;;;;;;4954309;29;20044;-76
2022/10/15 11:47:40;;;;;;;22.75;14.88;;;;;;;;;;5020410;28;20471;-76
2022/10/15 11:50:25;;;;;;;21.88;14.10;;;;;;;;;;4951973;29;20051;-77
2022/10/15 11:52:54;;;;;;;22.65;14.45;;;;;;;;;;4963381;28;20051;-76
2022/10/15 11:55:25;;;;;;;20.17;13.25;;;;;;;;;;4970982;28;20081;-77
2022/10/15 11:57:53;;;;;;;21.05;13.48;;;;;;;;;;4939186;28;20529;-76
2022/10/15 12:00:37;;;;;;;18.42;13.30;;;;;;;;;;4970942;28;20046;-77
2022/10/15 12:03:25;;;;;;;18.65;13.02;;;;;;;;;;4971047;28;20043;-76
2022/10/15 12:05:54;;;;;;;17.90;11.05;;;;;;;;;;4952202;29;20089;-76
2022/10/15 12:08:20;;;;;;;16.55;11.85;;;;;;;;;;4969565;28;20046;-77
2022/10/15 12:11:05;;;;;;;15.23;11.07;;;;;;;;;;4971574;28;20452;-76
2022/10/15 12:13:40;;;;;;;17.20;11.63;;;;;;;;;;4971891;28;20047;-76
2022/10/15 12:16:12;;;;;;;15.63;11.07;;;;;;;;;;4954348;28;20047;-77
2022/10/15 12:19:07;;;;;;;17.02;11.20;;;;;;;;;;4970683;28;20054;-76
2022/10/15 12:21:36;;;;;;;16.30;11.38;;;;;;;;;;4974440;28;20126;-76
2022/10/15 12:24:02;;;;;;;18.02;11.40;;;;;;;;;;4951947;29;20097;-76
2022/10/15 12:26:33;;;;;;;14.43;10.88;;;;;;;;;;4953963;28;20055;-76
2022/10/15 12:29:06;;;;;;;16.95;10.82;;;;;;;;;;4953958;28;20055;-77
2022/10/15 12:31:49;;;;;;;14.63;10.15;;;;;;;;;;4954581;28;20079;-76
2022/10/15 12:34:35;;;;;;;15.03;11.17;;;;;;;;;;4963498;28;20039;-76
2022/10/15 12:37:08;;;;;;;14.50;9.82;;;;;;;;;;4954250;28;20043;-77
2022/10/15 12:39:35;;;;;;;15.52;11.23;;;;;;;;;;4953686;28;20047;-77
2022/10/15 12:42:01;;;;;;;14.10;10.30;;;;;;;;;;4953842;28;20050;-77
2022/10/15 12:44:29;;;;;;;14.40;9.95;;;;;;;;;;4953461;28;20104;-76
2022/10/15 12:46:55;;;;;;;12.80;9.65;;;;;;;;;;4954751;28;20055;-76
2022/10/15 12:49:31;;;;;;;13.88;10.45;;;;;;;;;;4955050;29;20387;-76
2022/10/15 12:52:01;;;;;;;15.00;9.63;;;;;;;;;;4954637;29;20498;-76
2022/10/15 12:54:33;;;;;;;12.43;10.05;;;;;;;;;;4954594;28;20134;-76
2022/10/15 12:57:00;;;;;;;13.00;9.57;;;;;;;;;;4955095;28;20108;-75
2022/10/15 12:59:30;;;;;;;14.73;9.30;;;;;;;;;;4959872;28;20055;-76
2022/10/15 13:01:59;;;;;;;12.30;8.93;;;;;;;;;;4955272;28;20409;-76
2022/10/15 13:04:36;;;;;;;12.77;9.38;;;;;;;;;;4953939;28;20126;-76
2022/10/15 13:07:03;;;;;;;11.38;9.20;;;;;;;;;;4954948;28;20047;-75
2022/10/15 13:09:30;;;;;;;13.20;9.55;;;;;;;;;;4962557;28;20055;-75
2022/10/15 13:11:56;;;;;;;11.75;8.98;;;;;;;;;;4954552;28;20047;-75
2022/10/15 13:14:39;;;;;;;11.65;8.60;;;;;;;;;;4953418;28;20051;-76
2022/10/15 13:17:13;;;;;;;13.32;9.43;;;;;;;;;;4954316;28;20044;-75
2022/10/15 13:19:45;;;;;;;10.88;8.63;;;;;;;;;;4964637;28;20055;-75
2022/10/15 13:22:25;;;;;;;11.48;9.10;;;;;;;;;;4974729;28;20051;-76
2022/10/15 13:24:51;;;;;;;13.13;9.80;;;;;;;;;;4968933;28;20047;-76
2022/10/15 13:27:36;;;;;;;14.18;10.13;;;;;;;;;;4970939;28;20490;-76
2022/10/15 13:30:02;;;;;;;13.00;9.52;;;;;;;;;;4965281;28;20039;-76
2022/10/15 13:32:30;;;;;;;14.93;9.65;;;;;;;;;;4960313;28;20121;-76
2022/10/15 13:34:57;;;;;;;11.55;8.55;;;;;;;;;;4971646;28;20494;-76
2022/10/15 13:37:31;;;;;;;13.45;9.65;;;;;;;;;;4957535;28;20034;-76
2022/10/15 13:39:58;;;;;;;12.63;9.20;;;;;;;;;;4970155;28;20046;-76
2022/10/15 13:42:25;;;;;;;14.15;9.18;;;;;;;;;;4969460;28;20481;-76
2022/10/15 13:45:26;;;;;;;13.10;8.80;;;;;;;;;;4962400;28;20053;-76
2022/10/15 13:47:54;;;;;;;15.20;8.88;;;;;;;;;;4930353;29;20123;-76
2022/10/15 13:50:23;;;;;;;14.02;8.50;;;;;;;;;;4931820;29;20055;-76
2022/10/15 13:52:51;;;;;;;13.18;8.90;;;;;;;;;;4914155;29;20066;-76
2022/10/15 13:55:38;;;;;;;12.32;8.48;;;;;;;;;;4930846;29;20063;-76
2022/10/15 13:58:23;;;;;;;12.95;9.15;;;;;;;;;;4930099;29;20055;-76
2022/10/15 14:01:09;;;;;;;12.98;8.73;;;;;;;;;;4933666;28;20044;-76
2022/10/15 14:03:36;;;;;;;12.07;8.52;;;;;;;;;;4930823;29;20052;-76
2022/10/15 14:06:15;;;;;;;12.90;8.50;;;;;;;;;;4930955;28;20069;-76
2022/10/15 14:08:41;;;;;;;13.73;9.15;;;;;;;;;;4914468;28;20066;-76
2022/10/15 14:11:11;;;;;;;12.90;9.13;;;;;;;;;;4929874;28;20044;-76
2022/10/15 14:13:44;;;;;;;13.52;8.70;;;;;;;;;;4920630;28;20087;-75
2022/10/15 14:16:15;;;;;;;13.88;9.15;;;;;;;;;;4930992;29;20131;-76
2022/10/15 14:18:45;;;;;;;15.65;10.20;;;;;;;;;;4920588;29;20048;-76
2022/10/15 14:21:13;;;;;;;14.05;9.50;;;;;;;;;;4923036;29;20071;-76
2022/10/15 14:23:40;;;;;;;12.77;8.88;;;;;;;;;;4953614;28;20039;-76
2022/10/15 14:26:06;;;;;;;15.13;9.95;;;;;;;;;;4954580;28;20047;-76
2022/10/15 14:28:33;;;;;;;15.73;10.98;;;;;;;;;;4952526;28;20047;-76
2022/10/15 14:31:00;;;;;;;14.80;11.40;;;;;;;;;;4971612;28;20047;-76